createdAt,value
2023-01-13T00:00:38.537Z,0.80
2023-01-13T00:03:07.560Z,0.70
2023-01-13T00:05:38.452Z,0.70
2023-01-13T00:08:07.511Z,0.90
2023-01-13T00:10:36.693Z,0.50
2023-01-13T00:13:06.815Z,0.77
2023-01-13T00:15:35.083Z,0.80
2023-01-13T00:18:03.265Z,0.70
2023-01-13T00:20:31.390Z,0.80
2023-01-13T00:23:00.291Z,0.50
2023-01-13T00:25:28.501Z,0.67
2023-01-13T00:27:58.001Z,0.93
2023-01-13T00:30:27.553Z,0.73
2023-01-13T00:32:55.772Z,0.80
2023-01-13T00:35:23.973Z,0.80
2023-01-13T00:37:52.132Z,0.80
2023-01-13T00:40:20.441Z,0.63
2023-01-13T00:43:06.499Z,0.50
2023-01-13T00:45:36.062Z,0.70
2023-01-13T00:48:04.667Z,1.00
2023-01-13T00:50:32.858Z,0.60
2023-01-13T00:53:01.608Z,0.60
2023-01-13T00:55:32.453Z,0.70
2023-01-13T00:58:03.823Z,0.70
2023-01-13T01:00:32.805Z,0.70
2023-01-13T01:03:02.464Z,0.60
2023-01-13T01:05:30.683Z,0.60
2023-01-13T01:07:58.855Z,0.87
2023-01-13T01:10:27.263Z,0.50
2023-01-13T01:12:55.437Z,0.60
2023-01-13T01:15:23.650Z,1.00
2023-01-13T01:17:51.877Z,0.70
2023-01-13T01:20:21.501Z,0.60
2023-01-13T01:22:49.733Z,0.40
2023-01-13T01:25:18.018Z,0.60
2023-01-13T01:27:46.196Z,0.50
2023-01-13T01:30:15.584Z,0.57
2023-01-13T01:32:43.841Z,0.60
2023-01-13T01:35:12.238Z,0.60
2023-01-13T01:37:41.769Z,0.60
2023-01-13T01:40:11.573Z,0.60
2023-01-13T01:42:57.406Z,0.63
2023-01-13T01:45:27.948Z,0.40
2023-01-13T01:48:00.222Z,0.40
2023-01-13T01:50:29.804Z,0.50
2023-01-13T01:53:05.808Z,0.70
2023-01-13T01:55:37.861Z,0.60
2023-01-13T01:58:10.052Z,0.57
2023-01-13T02:00:38.364Z,0.47
2023-01-13T02:03:08.391Z,0.50
2023-01-13T02:05:36.777Z,0.50
2023-01-13T02:08:06.853Z,0.50
2023-01-13T02:10:35.202Z,0.87
2023-01-13T02:13:06.688Z,0.70
2023-01-13T02:15:42.351Z,0.60
2023-01-13T02:18:23.137Z,0.93
2023-01-13T02:21:09.917Z,0.80
2023-01-13T02:24:29.066Z,0.53
2023-01-13T02:27:25.834Z,0.53
2023-01-13T02:30:23.678Z,0.57
2023-01-13T02:33:01.885Z,0.70
2023-01-13T02:35:37.869Z,0.60
2023-01-13T02:38:07.404Z,0.90
2023-01-13T02:40:41.950Z,0.60
2023-01-13T02:43:33.282Z,0.80
2023-01-13T02:46:08.943Z,0.60
2023-01-13T02:48:39.327Z,0.67
2023-01-13T02:51:11.280Z,0.57
2023-01-13T02:53:44.360Z,0.50
2023-01-13T02:56:15.522Z,1.20
2023-01-13T02:58:46.656Z,0.80
2023-01-13T03:01:16.113Z,1.10
2023-01-13T03:03:44.597Z,0.83
2023-01-13T03:06:30.039Z,0.60
2023-01-13T03:09:05.284Z,0.50
2023-01-13T03:11:40.122Z,0.60
2023-01-13T03:14:20.613Z,0.60
2023-01-13T03:17:06.289Z,0.63
2023-01-13T03:19:40.124Z,1.10
2023-01-13T03:22:18.621Z,0.70
2023-01-13T03:24:51.573Z,0.70
2023-01-13T03:27:26.522Z,0.53
2023-01-13T03:29:59.454Z,0.50
2023-01-13T03:32:31.797Z,0.63
2023-01-13T03:35:05.624Z,0.40
2023-01-13T03:37:37.006Z,0.80
2023-01-13T03:40:09.780Z,0.70
2023-01-13T03:42:39.364Z,0.67
2023-01-13T03:45:12.560Z,0.60
2023-01-13T03:47:46.468Z,0.70
2023-01-13T03:50:18.401Z,0.53
2023-01-13T03:52:50.827Z,0.60
2023-01-13T03:55:21.867Z,0.40
2023-01-13T03:57:54.180Z,0.93
2023-01-13T04:00:27.131Z,0.50
2023-01-13T04:03:01.911Z,0.57
2023-01-13T04:05:30.982Z,0.60
2023-01-13T04:08:03.818Z,0.60
2023-01-13T04:10:49.919Z,0.40
2023-01-13T04:13:21.299Z,0.47
2023-01-13T04:15:51.105Z,0.70
2023-01-13T04:18:23.583Z,0.50
2023-01-13T04:20:53.661Z,0.80
2023-01-13T04:23:22.768Z,0.50
2023-01-13T04:25:51.661Z,0.60
2023-01-13T04:28:20.141Z,0.70
2023-01-13T04:30:49.074Z,0.40
2023-01-13T04:33:20.271Z,1.37
2023-01-13T04:35:49.111Z,1.00
2023-01-13T04:38:18.749Z,0.80
2023-01-13T04:40:47.256Z,0.50
2023-01-13T04:43:15.701Z,0.60
2023-01-13T04:45:43.994Z,0.60
2023-01-13T04:48:12.578Z,0.50
2023-01-13T04:50:42.720Z,0.50
2023-01-13T04:53:10.752Z,0.57
2023-01-13T04:55:38.790Z,0.60
2023-01-13T04:58:09.001Z,0.40
2023-01-13T05:00:38.000Z,0.67
2023-01-13T05:03:06.258Z,0.70
2023-01-13T05:05:34.413Z,0.50
2023-01-13T05:08:03.845Z,0.43
2023-01-13T05:10:32.130Z,0.50
2023-01-13T05:13:20.102Z,0.83
2023-01-13T05:16:17.171Z,0.50
2023-01-13T05:18:45.742Z,0.93
2023-01-13T05:21:27.717Z,0.50
2023-01-13T05:24:14.545Z,0.83
2023-01-13T05:26:42.799Z,0.40
2023-01-13T05:29:10.828Z,0.70
2023-01-13T05:31:38.816Z,0.70
2023-01-13T05:34:07.033Z,0.57
2023-01-13T05:36:35.098Z,0.40
2023-01-13T05:39:05.344Z,0.43
2023-01-13T05:41:51.092Z,0.40
2023-01-13T05:44:19.074Z,0.50
2023-01-13T05:46:47.181Z,0.67
2023-01-13T05:49:15.221Z,0.67
2023-01-13T05:51:43.183Z,0.40
2023-01-13T05:54:12.602Z,0.40
2023-01-13T05:56:40.644Z,0.50
2023-01-13T05:59:08.714Z,0.60
2023-01-13T06:01:37.241Z,0.50
2023-01-13T06:04:05.594Z,0.47
2023-01-13T06:06:33.644Z,0.37
2023-01-13T06:09:03.260Z,0.70
2023-01-13T06:11:32.671Z,0.77
2023-01-13T06:14:03.559Z,0.50
2023-01-13T06:16:36.461Z,0.40
2023-01-13T06:19:09.295Z,0.40
2023-01-13T06:21:37.581Z,0.40
2023-01-13T06:24:06.515Z,0.40
2023-01-13T06:26:39.079Z,0.40
2023-01-13T06:29:08.331Z,0.50
2023-01-13T06:31:40.057Z,0.60
2023-01-13T06:34:12.015Z,0.50
2023-01-13T06:36:43.382Z,0.67
2023-01-13T06:39:14.857Z,0.40
2023-01-13T06:42:01.858Z,0.40
2023-01-13T06:44:30.325Z,0.43
2023-01-13T06:46:58.513Z,0.30
2023-01-13T06:49:26.620Z,0.80
2023-01-13T06:51:54.701Z,0.50
2023-01-13T06:54:22.821Z,0.70
2023-01-13T06:56:52.396Z,0.50
2023-01-13T06:59:20.422Z,0.50
2023-01-13T07:01:48.598Z,0.57
2023-01-13T07:04:16.732Z,0.60
2023-01-13T07:06:44.734Z,0.63
2023-01-13T07:09:12.820Z,0.70
2023-01-13T07:11:40.831Z,0.93
2023-01-13T07:14:27.535Z,0.40
2023-01-13T07:16:55.582Z,0.30
2023-01-13T07:19:24.224Z,0.37
2023-01-13T07:21:52.740Z,0.40
2023-01-13T07:24:22.461Z,0.30
2023-01-13T07:26:52.383Z,0.40
2023-01-13T07:29:21.916Z,0.40
2023-01-13T07:31:50.559Z,0.40
2023-01-13T07:34:18.821Z,0.30
2023-01-13T07:36:46.826Z,0.47
2023-01-13T07:39:14.870Z,0.40
2023-01-13T07:42:00.690Z,0.50
2023-01-13T07:44:30.049Z,0.40
2023-01-13T07:46:58.022Z,0.30
2023-01-13T07:49:26.083Z,0.50
2023-01-13T07:51:54.086Z,0.40
2023-01-13T07:54:39.014Z,0.30
2023-01-13T07:57:07.609Z,0.30
2023-01-13T07:59:37.028Z,0.40
2023-01-13T08:02:05.218Z,0.30
2023-01-13T08:04:33.371Z,0.50
2023-01-13T08:07:01.374Z,0.47
2023-01-13T08:09:29.370Z,0.50
2023-01-13T08:12:11.333Z,0.40
2023-01-13T08:14:40.814Z,0.30
2023-01-13T08:17:09.169Z,0.50
2023-01-13T08:19:37.256Z,0.50
2023-01-13T08:22:05.345Z,0.40
2023-01-13T08:24:33.397Z,0.43
2023-01-13T08:27:01.407Z,0.40
2023-01-13T08:29:29.450Z,0.47
2023-01-13T08:31:58.746Z,0.30
2023-01-13T08:34:26.809Z,0.50
2023-01-13T08:36:54.860Z,0.50
2023-01-13T08:39:24.234Z,0.40
2023-01-13T08:41:58.583Z,0.83
2023-01-13T08:44:28.096Z,0.60
2023-01-13T08:46:57.829Z,0.50
2023-01-13T08:49:26.817Z,0.70
2023-01-13T08:51:55.029Z,0.40
2023-01-13T08:54:23.092Z,0.50
2023-01-13T08:56:51.315Z,0.50
2023-01-13T08:59:21.006Z,0.50
2023-01-13T09:01:49.121Z,0.50
2023-01-13T09:04:21.218Z,0.50
2023-01-13T09:06:49.760Z,0.70
2023-01-13T09:09:18.036Z,0.43
2023-01-13T09:12:06.107Z,0.30
2023-01-13T09:14:36.021Z,0.40
2023-01-13T09:17:04.392Z,0.43
2023-01-13T09:19:33.874Z,0.30
2023-01-13T09:22:01.937Z,0.40
2023-01-13T09:24:30.124Z,0.40
2023-01-13T09:26:58.252Z,0.60
2023-01-13T09:29:26.796Z,0.40
2023-01-13T09:31:54.834Z,0.43
2023-01-13T09:34:40.200Z,0.80
2023-01-13T09:37:09.862Z,0.40
2023-01-13T09:39:39.637Z,0.70
2023-01-13T09:42:35.110Z,0.40
2023-01-13T09:45:07.477Z,0.50
2023-01-13T09:47:41.110Z,0.47
2023-01-13T09:50:25.667Z,0.40
2023-01-13T09:52:55.208Z,0.40
2023-01-13T09:55:28.817Z,0.40
2023-01-13T09:57:57.072Z,0.63
2023-01-13T10:00:28.689Z,0.50
2023-01-13T10:03:14.669Z,0.50
2023-01-13T10:05:46.537Z,0.60
2023-01-13T10:08:23.044Z,0.40
2023-01-13T10:10:53.698Z,0.40
2023-01-13T10:13:24.137Z,0.53
2023-01-13T10:16:18.749Z,0.53
2023-01-13T10:19:04.570Z,0.40
2023-01-13T10:21:56.430Z,0.50
2023-01-13T10:24:34.352Z,0.50
2023-01-13T10:27:05.719Z,0.40
2023-01-13T10:29:34.644Z,0.50
2023-01-13T10:32:02.752Z,0.80
2023-01-13T10:34:30.791Z,0.50
2023-01-13T10:37:01.720Z,0.40
2023-01-13T10:39:40.337Z,0.40
2023-01-13T10:42:14.870Z,0.40
2023-01-13T10:44:50.980Z,0.60
2023-01-13T10:47:25.244Z,0.60
2023-01-13T10:50:19.266Z,0.70
2023-01-13T10:53:02.065Z,0.90
2023-01-13T10:55:33.742Z,0.83
2023-01-13T10:58:14.887Z,0.67
2023-01-13T11:00:42.980Z,0.60
2023-01-13T11:03:20.037Z,0.80
2023-01-13T11:05:53.046Z,0.63
2023-01-13T11:08:23.247Z,0.40
2023-01-13T11:10:55.293Z,0.67
2023-01-13T11:13:31.197Z,0.67
2023-01-13T11:16:04.562Z,0.40
2023-01-13T11:18:43.559Z,0.60
2023-01-13T11:21:20.958Z,0.50
2023-01-13T11:23:57.704Z,1.23
2023-01-13T11:26:34.354Z,0.87
2023-01-13T11:29:06.976Z,0.40
2023-01-13T11:31:39.628Z,0.80
2023-01-13T11:34:15.192Z,0.70
2023-01-13T11:36:47.441Z,0.50
2023-01-13T11:39:22.214Z,0.60
2023-01-13T11:42:10.527Z,0.40
2023-01-13T11:44:43.820Z,0.60
2023-01-13T11:47:13.838Z,0.57
2023-01-13T11:49:45.371Z,0.67
2023-01-13T11:52:20.264Z,0.40
2023-01-13T11:55:04.290Z,0.60
2023-01-13T11:57:47.814Z,1.00
2023-01-13T12:00:33.698Z,0.60
2023-01-13T12:03:21.340Z,0.60
2023-01-13T12:06:02.997Z,0.90
2023-01-13T12:08:47.672Z,0.80
2023-01-13T12:11:22.462Z,0.57
2023-01-13T12:14:08.927Z,0.80
2023-01-13T12:16:43.261Z,0.70
2023-01-13T12:19:25.564Z,0.90
2023-01-13T12:22:08.559Z,0.60
2023-01-13T12:24:41.954Z,0.70
2023-01-13T12:27:15.125Z,0.70
2023-01-13T12:29:45.474Z,0.40
2023-01-13T12:32:19.177Z,1.07
2023-01-13T12:35:02.894Z,0.53
2023-01-13T12:37:38.224Z,1.40
2023-01-13T12:40:22.522Z,0.67
2023-01-13T12:43:14.162Z,1.00
2023-01-13T12:45:43.664Z,0.70
2023-01-13T12:48:49.245Z,1.37
2023-01-13T12:51:25.183Z,1.00
2023-01-13T12:53:54.769Z,1.50
2023-01-13T12:56:44.393Z,0.80
2023-01-13T12:59:49.182Z,1.30
2023-01-13T13:02:37.654Z,0.80
2023-01-13T13:05:47.911Z,1.00
2023-01-13T13:08:21.885Z,0.80
2023-01-13T13:11:07.501Z,1.20
2023-01-13T13:13:43.500Z,1.30
2023-01-13T13:16:38.056Z,1.60
2023-01-13T13:19:45.812Z,0.97
2023-01-13T13:22:38.953Z,1.50
2023-01-13T13:25:27.400Z,1.50
2023-01-13T13:28:17.840Z,1.10
2023-01-13T13:30:57.427Z,1.10
2023-01-13T13:33:50.679Z,1.47
2023-01-13T13:36:41.284Z,1.70
2023-01-13T13:39:39.693Z,1.43
2023-01-13T13:42:32.199Z,1.83
2023-01-13T13:45:19.950Z,1.10
2023-01-13T13:47:48.493Z,1.00
2023-01-13T13:50:19.827Z,1.33
2023-01-13T13:52:55.249Z,0.70
2023-01-13T13:55:25.349Z,1.10
2023-01-13T13:57:55.325Z,1.20
2023-01-13T14:00:30.421Z,0.87
2023-01-13T14:03:01.162Z,0.60
2023-01-13T14:05:32.084Z,0.60
2023-01-13T14:08:03.165Z,0.87
2023-01-13T14:10:34.168Z,0.80
2023-01-13T14:13:04.040Z,0.40
2023-01-13T14:15:35.789Z,0.57
2023-01-13T14:18:06.042Z,0.50
2023-01-13T14:20:35.650Z,0.57
2023-01-13T14:23:06.037Z,0.57
2023-01-13T14:25:39.644Z,0.40
2023-01-13T14:28:33.443Z,0.70
2023-01-13T14:31:02.323Z,0.40
2023-01-13T14:33:35.329Z,0.40
2023-01-13T14:36:08.503Z,0.80
2023-01-13T14:38:38.008Z,0.70
2023-01-13T14:41:20.063Z,0.70
2023-01-13T14:43:49.452Z,0.97
2023-01-13T14:46:21.003Z,0.70
2023-01-13T14:48:51.345Z,1.20
2023-01-13T14:51:26.418Z,0.80
2023-01-13T14:53:57.251Z,0.70
2023-01-13T14:56:47.199Z,0.60
2023-01-13T14:59:51.733Z,1.43
2023-01-13T15:02:45.156Z,0.60
2023-01-13T15:05:42.740Z,0.50
2023-01-13T15:08:36.947Z,0.70
2023-01-13T15:11:08.211Z,0.80
2023-01-13T15:13:48.850Z,0.80
2023-01-13T15:16:24.728Z,1.30
2023-01-13T15:18:53.527Z,0.60
2023-01-13T15:21:22.018Z,0.80
2023-01-13T15:23:50.281Z,1.03
2023-01-13T15:26:23.354Z,0.90
2023-01-13T15:28:52.560Z,0.67
2023-01-13T15:31:21.558Z,0.87
2023-01-13T15:33:53.574Z,1.07
2023-01-13T15:36:25.797Z,1.10
2023-01-13T15:38:53.927Z,0.77
2023-01-13T15:41:37.643Z,1.10
2023-01-13T15:44:23.577Z,1.00
2023-01-13T15:46:53.303Z,0.80
2023-01-13T15:49:26.405Z,1.10
2023-01-13T15:51:56.426Z,2.07
2023-01-13T15:54:27.235Z,0.87
2023-01-13T15:56:56.603Z,1.10
2023-01-13T15:59:27.810Z,0.80
2023-01-13T16:01:55.848Z,1.20
2023-01-13T16:04:23.814Z,1.10
2023-01-13T16:06:51.927Z,1.03
2023-01-13T16:09:19.975Z,1.20
2023-01-13T16:11:48.038Z,1.40
2023-01-13T16:14:17.387Z,1.30
2023-01-13T16:16:45.407Z,1.17
2023-01-13T16:19:13.803Z,1.37
2023-01-13T16:21:42.314Z,1.10
2023-01-13T16:24:10.404Z,1.00
2023-01-13T16:26:38.955Z,1.73
2023-01-13T16:29:08.062Z,1.10
2023-01-13T16:31:37.806Z,1.40
2023-01-13T16:34:07.028Z,1.40
2023-01-13T16:36:36.996Z,1.63
2023-01-13T16:39:06.293Z,1.87
2023-01-13T16:41:34.980Z,2.10
2023-01-13T16:44:06.077Z,1.60
2023-01-13T16:46:34.696Z,1.00
2023-01-13T16:49:06.697Z,1.57
2023-01-13T16:51:34.881Z,1.33
2023-01-13T16:54:02.895Z,1.43
2023-01-13T16:56:32.539Z,1.67
2023-01-13T16:59:04.535Z,1.57
2023-01-13T17:01:35.991Z,1.00
2023-01-13T17:04:06.128Z,1.80
2023-01-13T17:06:38.651Z,1.30
2023-01-13T17:09:08.670Z,1.40
2023-01-13T17:11:36.696Z,1.40
2023-01-13T17:14:18.955Z,1.23
2023-01-13T17:16:47.765Z,1.10
2023-01-13T17:19:18.417Z,1.37
2023-01-13T17:21:47.327Z,1.53
2023-01-13T17:24:15.713Z,3.57
2023-01-13T17:26:47.553Z,1.53
2023-01-13T17:29:17.838Z,1.40
2023-01-13T17:31:46.505Z,1.33
2023-01-13T17:34:15.264Z,1.67
2023-01-13T17:36:44.790Z,1.50
2023-01-13T17:39:16.933Z,1.20
2023-01-13T17:41:45.365Z,1.87
2023-01-13T17:44:14.813Z,1.30
2023-01-13T17:46:43.010Z,1.60
2023-01-13T17:49:11.789Z,1.80
2023-01-13T17:51:39.941Z,1.93
2023-01-13T17:54:11.931Z,1.93
2023-01-13T17:56:40.370Z,1.70
2023-01-13T17:59:10.376Z,1.33
2023-01-13T18:01:39.250Z,2.03
2023-01-13T18:04:07.899Z,1.93
2023-01-13T18:06:36.031Z,2.07
2023-01-13T18:09:04.038Z,1.70
2023-01-13T18:11:33.308Z,1.90
2023-01-13T18:14:01.273Z,1.23
2023-01-13T18:16:31.020Z,1.93
2023-01-13T18:19:15.046Z,1.53
2023-01-13T18:22:00.897Z,1.30
2023-01-13T18:24:46.507Z,1.67
2023-01-13T18:27:22.811Z,1.37
2023-01-13T18:29:54.535Z,1.87
2023-01-13T18:32:24.681Z,1.53
2023-01-13T18:35:04.762Z,2.07
2023-01-13T18:37:35.669Z,2.50
2023-01-13T18:40:04.328Z,1.80
2023-01-13T18:42:51.170Z,1.43
2023-01-13T18:45:19.810Z,1.10
2023-01-13T18:47:47.840Z,1.40
2023-01-13T18:50:17.157Z,1.10
2023-01-13T18:52:45.290Z,1.53
2023-01-13T18:55:13.436Z,1.40
2023-01-13T18:57:42.782Z,1.00
2023-01-13T19:00:12.961Z,1.57
2023-01-13T19:02:41.330Z,1.57
2023-01-13T19:05:10.213Z,1.20
2023-01-13T19:07:39.063Z,1.17
2023-01-13T19:10:09.793Z,1.33
2023-01-13T19:12:37.828Z,1.60
2023-01-13T19:15:08.866Z,2.23
2023-01-13T19:17:37.067Z,1.10
2023-01-13T19:20:06.051Z,1.60
2023-01-13T19:22:36.292Z,1.23
2023-01-13T19:25:05.711Z,1.00
2023-01-13T19:27:33.780Z,0.90
2023-01-13T19:30:03.242Z,1.47
2023-01-13T19:32:33.974Z,1.13
2023-01-13T19:35:02.053Z,1.70
2023-01-13T19:37:31.482Z,1.67
2023-01-13T19:40:00.076Z,1.20
2023-01-13T19:42:45.793Z,1.30
2023-01-13T19:45:31.501Z,1.10
2023-01-13T19:48:02.296Z,1.30
2023-01-13T19:50:30.603Z,1.73
2023-01-13T19:52:58.809Z,1.90
2023-01-13T19:55:26.855Z,1.97
2023-01-13T19:57:54.818Z,1.50
2023-01-13T20:00:23.799Z,1.00
2023-01-13T20:02:53.119Z,1.73
2023-01-13T20:05:25.937Z,1.30
2023-01-13T20:07:54.299Z,1.30
2023-01-13T20:10:23.666Z,1.50
2023-01-13T20:12:52.038Z,1.70
2023-01-13T20:15:20.041Z,1.40
2023-01-13T20:17:48.073Z,1.13
2023-01-13T20:20:16.830Z,1.27
2023-01-13T20:22:46.296Z,1.70
2023-01-13T20:25:16.874Z,1.03
2023-01-13T20:27:45.228Z,1.57
2023-01-13T20:30:14.530Z,1.13
2023-01-13T20:32:43.609Z,1.13
2023-01-13T20:35:12.614Z,1.43
2023-01-13T20:37:41.866Z,1.63
2023-01-13T20:40:14.641Z,1.10
2023-01-13T20:42:45.079Z,1.30
2023-01-13T20:45:17.478Z,2.00
2023-01-13T20:47:46.495Z,1.77
2023-01-13T20:50:14.987Z,1.67
2023-01-13T20:52:43.161Z,1.57
2023-01-13T20:55:13.748Z,1.10
2023-01-13T20:57:41.906Z,1.60
2023-01-13T21:00:11.486Z,1.60
2023-01-13T21:02:41.078Z,2.10
2023-01-13T21:05:09.813Z,1.40
2023-01-13T21:07:37.899Z,1.23
2023-01-13T21:10:06.507Z,1.50
2023-01-13T21:12:53.228Z,1.97
2023-01-13T21:15:22.034Z,2.53
2023-01-13T21:18:10.128Z,1.80
2023-01-13T21:20:39.379Z,1.80
2023-01-13T21:23:08.085Z,1.90
2023-01-13T21:25:37.226Z,1.93
2023-01-13T21:28:07.717Z,1.70
2023-01-13T21:30:36.187Z,1.57
2023-01-13T21:33:06.114Z,1.67
2023-01-13T21:35:34.613Z,1.67
2023-01-13T21:38:02.623Z,1.97
2023-01-13T21:40:30.573Z,1.70
2023-01-13T21:43:15.894Z,1.80
2023-01-13T21:46:04.783Z,1.67
2023-01-13T21:48:33.592Z,1.60
2023-01-13T21:51:02.117Z,2.03
2023-01-13T21:53:30.329Z,1.23
2023-01-13T21:55:58.349Z,2.90
2023-01-13T21:58:26.348Z,1.33
2023-01-13T22:00:56.049Z,1.80
2023-01-13T22:03:24.090Z,1.57
2023-01-13T22:05:55.814Z,0.90
2023-01-13T22:08:23.798Z,1.67
2023-01-13T22:11:00.965Z,1.30
2023-01-13T22:13:47.920Z,1.20
2023-01-13T22:16:18.127Z,1.20
2023-01-13T22:18:46.114Z,1.80
2023-01-13T22:21:14.271Z,1.07
2023-01-13T22:23:42.340Z,1.47
2023-01-13T22:26:10.572Z,1.30
2023-01-13T22:28:42.859Z,1.50
2023-01-13T22:31:12.163Z,1.90
2023-01-13T22:33:42.802Z,1.60
2023-01-13T22:36:11.366Z,1.90
2023-01-13T22:38:39.835Z,2.00
2023-01-13T22:41:10.062Z,1.50
2023-01-13T22:43:38.948Z,2.10
2023-01-13T22:46:08.796Z,2.10
2023-01-13T22:48:37.118Z,1.83
2023-01-13T22:51:07.344Z,2.00
2023-01-13T22:53:35.737Z,2.13
2023-01-13T22:56:04.035Z,2.60
2023-01-13T22:58:32.648Z,1.93
2023-01-13T23:01:10.622Z,2.37
2023-01-13T23:03:38.883Z,2.20
2023-01-13T23:06:08.603Z,2.50
2023-01-13T23:08:36.737Z,2.07
2023-01-13T23:11:06.526Z,2.17
2023-01-13T23:13:34.882Z,2.83
2023-01-13T23:16:04.465Z,2.67
2023-01-13T23:18:32.932Z,3.27
2023-01-13T23:21:04.837Z,2.33
2023-01-13T23:23:35.036Z,2.00
2023-01-13T23:26:04.017Z,2.10
2023-01-13T23:28:33.194Z,1.97
2023-01-13T23:31:01.542Z,3.17
2023-01-13T23:33:29.527Z,2.60
2023-01-13T23:35:57.624Z,2.60
2023-01-13T23:38:25.747Z,2.50
2023-01-13T23:40:55.838Z,2.03
2023-01-13T23:43:26.173Z,2.23
2023-01-13T23:46:01.729Z,2.50
2023-01-13T23:48:29.773Z,2.67
2023-01-13T23:50:58.868Z,2.47
2023-01-13T23:53:31.982Z,1.60
2023-01-13T23:56:02.186Z,1.97
2023-01-13T23:58:30.964Z,1.97
